Time;durP1;ratioP1;P1;durP2;ratioP2;P2;SDS_P1;SDS_P2;PMS_P1;PMS_P2;Temp;Humidity;BMP_temperature;BMP_pressure;BME280_temperature;BME280_humidity;BME280_pressure;Samples;Min_cycle;Max_cycle;Signal;HPM_P1;HPM_P2
2021/09/16 00:01:55;;;;;;;4.97;3.28;;;;;;;;;;5112178;27;20767;-69
2021/09/16 00:05:40;;;;;;;5.78;3.00;;;;;;;;;;5111128;27;20912;-69
2021/09/16 00:09:48;;;;;;;7.80;3.13;;;;;;;;;;5111690;27;20419;-66
2021/09/16 00:14:47;;;;;;;8.57;3.30;;;;;;;;;;5112077;27;20388;-67
2021/09/16 00:17:13;;;;;;;6.38;3.20;;;;;;;;;;5110172;28;20503;-67
2021/09/16 00:19:39;;;;;;;4.68;2.83;;;;;;;;;;5110896;28;20511;-67
2021/09/16 00:22:05;;;;;;;5.90;3.28;;;;;;;;;;5109944;28;20031;-67
2021/09/16 00:24:31;;;;;;;4.82;2.63;;;;;;;;;;5111386;28;20020;-67
2021/09/16 00:27:13;;;;;;;5.97;3.33;;;;;;;;;;5070953;28;20449;-69
2021/09/16 00:29:39;;;;;;;5.50;3.10;;;;;;;;;;5071037;28;20032;-66
2021/09/16 00:32:21;;;;;;;6.63;3.47;;;;;;;;;;5111008;27;20876;-66
2021/09/16 00:34:47;;;;;;;8.57;3.55;;;;;;;;;;5111330;28;20464;-69
2021/09/16 00:37:27;;;;;;;8.00;3.08;;;;;;;;;;5111587;27;20388;-68
2021/09/16 00:40:37;;;;;;;6.60;3.30;;;;;;;;;;5070407;28;20992;-66
2021/09/16 00:44:39;;;;;;;5.70;3.03;;;;;;;;;;5071570;28;20388;-67
2021/09/16 00:47:05;;;;;;;4.93;2.90;;;;;;;;;;5070612;28;20025;-68
2021/09/16 00:49:31;;;;;;;6.22;2.92;;;;;;;;;;5069491;28;20479;-67
2021/09/16 00:51:57;;;;;;;7.47;3.63;;;;;;;;;;5070733;28;20056;-67
2021/09/16 00:54:24;;;;;;;7.15;3.58;;;;;;;;;;5070291;28;20025;-67
2021/09/16 01:00:14;;;;;;;5.97;3.40;;;;;;;;;;5111207;27;20320;-67
2021/09/16 01:02:40;;;;;;;5.15;3.20;;;;;;;;;;5110035;28;20039;-67
2021/09/16 01:05:06;;;;;;;7.00;3.40;;;;;;;;;;5110052;28;20024;-67
2021/09/16 01:07:34;;;;;;;4.75;2.95;;;;;;;;;;5110902;28;20476;-68
2021/09/16 01:10:01;;;;;;;5.28;3.10;;;;;;;;;;5109867;28;20027;-67
2021/09/16 01:12:28;;;;;;;7.55;3.22;;;;;;;;;;5109950;28;20020;-67
2021/09/16 01:16:47;;;;;;;5.63;2.95;;;;;;;;;;5071317;28;20395;-67
2021/09/16 01:19:36;;;;;;;6.00;3.10;;;;;;;;;;5070806;28;20437;-67
2021/09/16 01:22:03;;;;;;;5.15;2.97;;;;;;;;;;5069201;28;20047;-67
2021/09/16 01:24:48;;;;;;;5.80;3.15;;;;;;;;;;5111634;27;20309;-67
2021/09/16 01:27:15;;;;;;;9.60;3.47;;;;;;;;;;5111562;28;20103;-67
2021/09/16 01:32:24;;;;;;;5.75;3.25;;;;;;;;;;5112164;27;20521;-69
2021/09/16 01:34:51;;;;;;;5.78;3.05;;;;;;;;;;5111400;28;20114;-69
2021/09/16 01:41:24;;;;;;;10.25;5.38;;;;;;;;;;5112223;27;20691;-69
2021/09/16 01:43:50;;;;;;;8.77;3.90;;;;;;;;;;5109663;28;20019;-69
2021/09/16 01:46:16;;;;;;;10.18;5.00;;;;;;;;;;5111289;28;20027;-69
2021/09/16 01:48:42;;;;;;;12.07;5.22;;;;;;;;;;5111531;28;20023;-68
2021/09/16 01:51:08;;;;;;;12.43;5.28;;;;;;;;;;5110932;28;20026;-67
2021/09/16 01:53:35;;;;;;;9.40;4.13;;;;;;;;;;5111308;28;20595;-66
2021/09/16 01:59:21;;;;;;;10.70;5.10;;;;;;;;;;5111913;27;20385;-67
2021/09/16 02:01:59;;;;;;;12.85;4.68;;;;;;;;;;5071364;27;20391;-69
2021/09/16 02:04:25;;;;;;;8.10;4.13;;;;;;;;;;5070493;28;20028;-67
2021/09/16 02:06:51;;;;;;;8.93;4.57;;;;;;;;;;5070810;28;20052;-68
2021/09/16 02:09:17;;;;;;;8.18;3.92;;;;;;;;;;5070743;28;20412;-69
2021/09/16 02:13:34;;;;;;;7.75;3.97;;;;;;;;;;5071035;28;20418;-69
2021/09/16 02:16:00;;;;;;;7.88;4.63;;;;;;;;;;5070967;28;20036;-67
2021/09/16 02:21:48;;;;;;;9.23;4.57;;;;;;;;;;5111862;27;20412;-67
2021/09/16 02:24:14;;;;;;;7.95;3.95;;;;;;;;;;5110077;28;20030;-67
2021/09/16 02:26:40;;;;;;;6.45;3.78;;;;;;;;;;5110939;28;20446;-68
2021/09/16 02:30:39;;;;;;;5.82;3.58;;;;;;;;;;5111501;27;20310;-68
2021/09/16 02:35:42;;;;;;;6.38;3.30;;;;;;;;;;5111698;27;20742;-69
2021/09/16 02:38:43;;;;;;;6.25;3.97;;;;;;;;;;5111729;27;20394;-68
2021/09/16 02:41:09;;;;;;;7.72;3.25;;;;;;;;;;5111359;28;20028;-68
2021/09/16 02:48:36;;;;;;;5.15;3.22;;;;;;;;;;5111919;27;20393;-69
2021/09/16 02:51:03;;;;;;;6.18;3.22;;;;;;;;;;5110104;28;20035;-69
2021/09/16 02:55:12;;;;;;;9.98;4.20;;;;;;;;;;5071196;28;20851;-67
2021/09/16 03:00:30;;;;;;;7.90;3.88;;;;;;;;;;5111440;27;20405;-69
2021/09/16 03:02:56;;;;;;;7.03;3.72;;;;;;;;;;5111394;28;20030;-69
2021/09/16 03:05:23;;;;;;;5.63;3.38;;;;;;;;;;5111856;28;20051;-69
2021/09/16 03:07:49;;;;;;;6.43;3.53;;;;;;;;;;5110919;28;20530;-69
2021/09/16 03:10:15;;;;;;;4.97;3.08;;;;;;;;;;5111199;28;20081;-69
2021/09/16 03:12:42;;;;;;;6.18;3.38;;;;;;;;;;5109926;28;20031;-67
2021/09/16 03:15:27;;;;;;;10.65;4.35;;;;;;;;;;5111088;27;20833;-67
2021/09/16 03:19:26;;;;;;;6.38;3.63;;;;;;;;;;5071018;28;20411;-67
2021/09/16 03:21:52;;;;;;;6.13;3.80;;;;;;;;;;5070431;28;20033;-68
2021/09/16 03:28:01;;;;;;;7.85;3.70;;;;;;;;;;5131712;27;20112;-67
2021/09/16 03:30:28;;;;;;;6.65;3.42;;;;;;;;;;5111318;28;20093;-67
2021/09/16 03:32:54;;;;;;;5.53;3.25;;;;;;;;;;5111280;28;20035;-67
2021/09/16 03:35:20;;;;;;;6.53;3.78;;;;;;;;;;5092626;28;20373;-67
2021/09/16 03:37:46;;;;;;;6.50;3.42;;;;;;;;;;5111183;28;20066;-67
2021/09/16 03:40:12;;;;;;;7.13;3.53;;;;;;;;;;5111294;28;20034;-67
2021/09/16 03:42:39;;;;;;;8.00;3.92;;;;;;;;;;5092407;28;20077;-67
2021/09/16 03:47:01;;;;;;;6.78;3.90;;;;;;;;;;5111466;27;20401;-69
2021/09/16 03:49:27;;;;;;;10.13;3.55;;;;;;;;;;5110933;28;20024;-69
2021/09/16 03:53:11;;;;;;;7.53;3.55;;;;;;;;;;5111398;27;20408;-67
2021/09/16 03:56:05;;;;;;;5.85;3.42;;;;;;;;;;5070538;28;20911;-69
2021/09/16 03:58:31;;;;;;;9.90;4.45;;;;;;;;;;5070772;28;20052;-69
2021/09/16 04:02:37;;;;;;;10.38;7.15;;;;;;;;;;5112115;27;20392;-69
2021/09/16 04:06:08;;;;;;;8.25;4.68;;;;;;;;;;5071518;28;20387;-69
2021/09/16 04:10:41;;;;;;;7.38;4.20;;;;;;;;;;5111160;27;20401;-68
2021/09/16 04:14:57;;;;;;;6.75;3.75;;;;;;;;;;5112178;27;20396;-68
2021/09/16 04:19:53;;;;;;;6.88;4.00;;;;;;;;;;5111487;27;20401;-71
2021/09/16 04:22:19;;;;;;;7.45;4.05;;;;;;;;;;5111291;28;20024;-70
2021/09/16 04:24:45;;;;;;;7.32;3.97;;;;;;;;;;5110895;28;20074;-68
2021/09/16 04:28:01;;;;;;;6.97;3.47;;;;;;;;;;5111857;27;20847;-69
2021/09/16 04:31:25;;;;;;;6.88;3.80;;;;;;;;;;5131473;27;20317;-69
2021/09/16 04:36:35;;;;;;;7.93;4.40;;;;;;;;;;5111987;27;20458;-69
2021/09/16 04:41:31;;;;;;;9.68;4.35;;;;;;;;;;5071658;28;20392;-69
2021/09/16 04:43:57;;;;;;;7.43;3.72;;;;;;;;;;5070884;28;20024;-68
2021/09/16 04:46:23;;;;;;;7.25;4.10;;;;;;;;;;5070291;28;20025;-69
2021/09/16 04:48:49;;;;;;;7.88;4.03;;;;;;;;;;5070707;28;20036;-68
2021/09/16 04:51:35;;;;;;;10.70;4.55;;;;;;;;;;5112044;27;20513;-67
2021/09/16 04:55:44;;;;;;;7.05;3.85;;;;;;;;;;5111403;27;20764;-69
2021/09/16 05:00:43;;;;;;;7.32;3.97;;;;;;;;;;5111272;27;21038;-68
2021/09/16 05:03:41;;;;;;;8.18;4.00;;;;;;;;;;5112134;27;20774;-68
2021/09/16 05:07:53;;;;;;;8.73;4.95;;;;;;;;;;5108812;27;20874;-68
2021/09/16 05:10:20;;;;;;;11.35;6.53;;;;;;;;;;5110010;28;20330;-68
2021/09/16 05:13:47;;;;;;;9.45;4.70;;;;;;;;;;5110683;27;20396;-68
2021/09/16 05:17:20;;;;;;;9.95;4.32;;;;;;;;;;5108003;27;20385;-68
2021/09/16 05:20:35;;;;;;;8.30;4.47;;;;;;;;;;5110763;27;20500;-70
2021/09/16 05:24:45;;;;;;;6.13;3.60;;;;;;;;;;5110791;27;20123;-68
2021/09/16 05:27:12;;;;;;;7.53;4.18;;;;;;;;;;5108422;28;20522;-70
2021/09/16 05:29:40;;;;;;;11.68;4.57;;;;;;;;;;5110688;28;20464;-69
2021/09/16 05:32:07;;;;;;;10.30;4.68;;;;;;;;;;5110649;28;20390;-66
2021/09/16 05:34:33;;;;;;;10.02;4.15;;;;;;;;;;5109497;28;20078;-68
2021/09/16 05:36:59;;;;;;;7.03;3.72;;;;;;;;;;5108316;28;20070;-67
2021/09/16 05:39:25;;;;;;;8.43;4.88;;;;;;;;;;5107849;28;20031;-68
2021/09/16 05:41:52;;;;;;;7.53;3.38;;;;;;;;;;5109694;28;20023;-68
2021/09/16 05:48:11;;;;;;;9.02;3.47;;;;;;;;;;5110511;27;20393;-69
2021/09/16 05:50:37;;;;;;;10.30;4.13;;;;;;;;;;5110081;28;20058;-68
2021/09/16 05:56:29;;;;;;;6.85;3.78;;;;;;;;;;5107853;27;20397;-69
2021/09/16 05:58:56;;;;;;;7.78;3.55;;;;;;;;;;5108386;28;20032;-68
2021/09/16 06:01:22;;;;;;;6.18;3.30;;;;;;;;;;5108251;28;20387;-67
2021/09/16 06:03:48;;;;;;;12.25;3.97;;;;;;;;;;5108426;28;20484;-68
2021/09/16 06:06:15;;;;;;;6.53;3.60;;;;;;;;;;5108821;28;20024;-68
2021/09/16 06:08:42;;;;;;;5.90;3.50;;;;;;;;;;5110206;28;20035;-68
2021/09/16 06:11:09;;;;;;;18.35;9.57;;;;;;;;;;5110355;28;20023;-69
2021/09/16 06:14:20;;;;;;;10.50;4.38;;;;;;;;;;5110745;27;20532;-67
2021/09/16 06:19:01;;;;;;;7.05;3.88;;;;;;;;;;5084160;27;20935;-67
2021/09/16 06:21:27;;;;;;;6.50;3.53;;;;;;;;;;5082187;28;20027;-71
2021/09/16 06:23:53;;;;;;;5.47;3.40;;;;;;;;;;5089854;28;20665;-71
2021/09/16 06:29:06;;;;;;;6.60;3.25;;;;;;;;;;5089188;27;20502;-70
2021/09/16 06:32:24;;;;;;;8.00;4.70;;;;;;;;;;5073643;27;20450;-66
2021/09/16 06:34:50;;;;;;;8.00;5.00;;;;;;;;;;5076208;28;20655;-68
2021/09/16 06:37:17;;;;;;;10.05;5.22;;;;;;;;;;5074798;28;20028;-67
2021/09/16 06:39:43;;;;;;;7.75;3.95;;;;;;;;;;5077855;28;20472;-66
2021/09/16 06:42:25;;;;;;;7.65;3.92;;;;;;;;;;5085596;27;20499;-64
2021/09/16 06:44:51;;;;;;;7.03;3.67;;;;;;;;;;5088146;28;20039;-67
2021/09/16 06:47:18;;;;;;;9.15;4.10;;;;;;;;;;5085951;28;20739;-65
2021/09/16 06:49:48;;;;;;;7.68;3.53;;;;;;;;;;5085013;28;20024;-62
2021/09/16 06:54:25;;;;;;;6.22;3.70;;;;;;;;;;5041472;28;20832;-65
2021/09/16 06:58:03;;;;;;;6.55;3.92;;;;;;;;;;5083637;27;20556;-65
2021/09/16 07:00:29;;;;;;;8.65;4.70;;;;;;;;;;5088867;28;20040;-65
2021/09/16 07:04:19;;;;;;;7.63;4.53;;;;;;;;;;5086153;27;21192;-67
2021/09/16 07:07:24;;;;;;;8.27;3.58;;;;;;;;;;5112543;27;20123;-64
2021/09/16 07:09:50;;;;;;;6.45;3.47;;;;;;;;;;5097124;27;20483;-64
2021/09/16 07:12:16;;;;;;;11.23;5.18;;;;;;;;;;5095971;27;20035;-64
2021/09/16 07:14:43;;;;;;;7.65;3.70;;;;;;;;;;5111243;27;20037;-64
2021/09/16 07:17:09;;;;;;;7.78;3.85;;;;;;;;;;5129851;28;20025;-65
2021/09/16 07:19:36;;;;;;;10.73;4.53;;;;;;;;;;5142023;27;20039;-66
2021/09/16 07:22:02;;;;;;;7.53;3.50;;;;;;;;;;5149578;27;20011;-67
2021/09/16 07:24:28;;;;;;;6.85;3.97;;;;;;;;;;5150940;27;20027;-65
2021/09/16 07:27:11;;;;;;;6.65;3.40;;;;;;;;;;5108949;27;20416;-66
2021/09/16 07:29:38;;;;;;;5.47;3.08;;;;;;;;;;5109269;28;20442;-67
2021/09/16 07:32:04;;;;;;;6.82;3.45;;;;;;;;;;5109407;28;20061;-63
2021/09/16 07:34:30;;;;;;;7.35;3.38;;;;;;;;;;5109358;28;20049;-65
2021/09/16 07:36:56;;;;;;;6.72;3.83;;;;;;;;;;5110599;28;20380;-67
2021/09/16 07:40:11;;;;;;;7.70;3.60;;;;;;;;;;5070530;28;20415;-65
2021/09/16 07:42:38;;;;;;;7.47;3.65;;;;;;;;;;5068724;28;20470;-65
2021/09/16 07:45:04;;;;;;;7.53;3.92;;;;;;;;;;5069049;28;20025;-66
2021/09/16 07:47:30;;;;;;;7.18;3.30;;;;;;;;;;5070025;28;20035;-65
2021/09/16 07:49:56;;;;;;;5.85;3.58;;;;;;;;;;5068861;28;20367;-66
2021/09/16 07:55:25;;;;;;;8.05;3.90;;;;;;;;;;5109891;27;20309;-68
2021/09/16 07:57:51;;;;;;;6.15;3.55;;;;;;;;;;5114363;28;20529;-66
2021/09/16 08:00:18;;;;;;;7.05;4.40;;;;;;;;;;5125175;28;20672;-65
2021/09/16 08:02:45;;;;;;;9.45;3.47;;;;;;;;;;5129634;28;20023;-65
2021/09/16 08:05:11;;;;;;;6.47;3.70;;;;;;;;;;5128729;28;20312;-65
2021/09/16 08:07:37;;;;;;;5.93;3.75;;;;;;;;;;5096561;28;20024;-64
2021/09/16 08:10:04;;;;;;;8.48;3.38;;;;;;;;;;5087233;28;20035;-65
2021/09/16 08:12:30;;;;;;;8.73;3.80;;;;;;;;;;5088574;28;20029;-66
2021/09/16 08:14:56;;;;;;;6.70;3.53;;;;;;;;;;5089255;28;20055;-65
2021/09/16 08:17:22;;;;;;;7.55;4.55;;;;;;;;;;5086060;28;20020;-66
2021/09/16 08:19:48;;;;;;;5.85;3.75;;;;;;;;;;5084760;28;20035;-67
2021/09/16 08:22:15;;;;;;;7.07;3.60;;;;;;;;;;5085925;28;20024;-67
2021/09/16 08:24:41;;;;;;;7.43;3.60;;;;;;;;;;5086013;28;20111;-67
2021/09/16 08:27:07;;;;;;;6.20;3.30;;;;;;;;;;5088341;28;20020;-66
2021/09/16 08:29:34;;;;;;;5.68;3.05;;;;;;;;;;5088476;28;20154;-66
2021/09/16 08:32:00;;;;;;;7.60;3.55;;;;;;;;;;5088594;28;20031;-68
2021/09/16 08:34:28;;;;;;;13.52;4.88;;;;;;;;;;5089485;28;20043;-68
2021/09/16 08:36:54;;;;;;;9.23;4.43;;;;;;;;;;5089700;28;20490;-67
2021/09/16 08:40:09;;;;;;;8.00;4.38;;;;;;;;;;5070255;28;20396;-67
2021/09/16 08:42:39;;;;;;;8.48;4.30;;;;;;;;;;5069848;28;20440;-65
2021/09/16 08:45:07;;;;;;;10.93;4.20;;;;;;;;;;5066925;28;20418;-67
2021/09/16 08:47:36;;;;;;;8.68;4.80;;;;;;;;;;5070565;28;20048;-68
2021/09/16 08:50:03;;;;;;;9.93;5.20;;;;;;;;;;5070314;28;20044;-69
2021/09/16 08:52:32;;;;;;;15.55;4.18;;;;;;;;;;5070088;28;20468;-68
2021/09/16 08:54:59;;;;;;;9.45;4.55;;;;;;;;;;5070194;28;20048;-67
2021/09/16 08:57:26;;;;;;;12.77;4.03;;;;;;;;;;5070055;28;20096;-67
2021/09/16 08:59:52;;;;;;;9.35;4.85;;;;;;;;;;5068325;28;20032;-67
2021/09/16 09:02:20;;;;;;;6.75;3.35;;;;;;;;;;5069744;28;20127;-68
2021/09/16 09:04:46;;;;;;;8.80;3.92;;;;;;;;;;5068560;28;20029;-67
2021/09/16 09:07:19;;;;;;;9.10;3.90;;;;;;;;;;5066876;28;20024;-66
2021/09/16 09:09:45;;;;;;;10.60;3.75;;;;;;;;;;5068557;28;20120;-67
2021/09/16 09:12:12;;;;;;;9.80;4.00;;;;;;;;;;5067528;28;20025;-66
2021/09/16 09:14:40;;;;;;;6.40;3.63;;;;;;;;;;5066159;28;20021;-67
2021/09/16 09:17:20;;;;;;;6.95;3.42;;;;;;;;;;5067476;28;20104;-66
2021/09/16 09:19:47;;;;;;;6.53;3.50;;;;;;;;;;5067720;28;20715;-66
2021/09/16 09:22:13;;;;;;;8.13;3.72;;;;;;;;;;5069316;28;20058;-66
2021/09/16 09:24:41;;;;;;;8.50;3.35;;;;;;;;;;5064766;28;20021;-68
2021/09/16 09:27:40;;;;;;;7.15;3.70;;;;;;;;;;5068479;28;20481;-66
2021/09/16 09:30:09;;;;;;;8.13;4.05;;;;;;;;;;5067615;28;20089;-66
2021/09/16 09:32:44;;;;;;;7.00;3.78;;;;;;;;;;5068387;28;20087;-67
2021/09/16 09:35:43;;;;;;;8.13;3.55;;;;;;;;;;5068365;28;20174;-65
2021/09/16 09:38:12;;;;;;;9.40;3.00;;;;;;;;;;5046856;28;20094;-66
2021/09/16 09:40:40;;;;;;;5.53;3.28;;;;;;;;;;5064488;28;20086;-66
2021/09/16 09:43:18;;;;;;;6.13;3.33;;;;;;;;;;5067252;28;20016;-65
2021/09/16 09:45:58;;;;;;;7.72;3.28;;;;;;;;;;5067972;28;20058;-66
2021/09/16 09:48:24;;;;;;;6.15;3.22;;;;;;;;;;5065609;28;20096;-66
2021/09/16 09:50:51;;;;;;;7.45;3.30;;;;;;;;;;5053797;28;20035;-66
2021/09/16 09:53:17;;;;;;;6.63;3.58;;;;;;;;;;5054807;28;20385;-66
2021/09/16 09:55:44;;;;;;;5.93;3.47;;;;;;;;;;5035482;28;20032;-67
2021/09/16 09:58:10;;;;;;;6.38;3.28;;;;;;;;;;5035506;28;20030;-66
2021/09/16 10:00:36;;;;;;;6.53;3.20;;;;;;;;;;5052939;28;20029;-67
2021/09/16 10:03:03;;;;;;;6.13;3.53;;;;;;;;;;5053936;28;20032;-66
2021/09/16 10:05:33;;;;;;;6.18;3.20;;;;;;;;;;5054214;28;20036;-73
2021/09/16 10:08:11;;;;;;;5.78;3.50;;;;;;;;;;5054376;28;20028;-70
2021/09/16 10:10:37;;;;;;;5.15;3.20;;;;;;;;;;5053770;28;20025;-69
2021/09/16 10:13:04;;;;;;;6.40;3.72;;;;;;;;;;5054333;28;20025;-69
2021/09/16 10:15:30;;;;;;;7.53;3.45;;;;;;;;;;5054299;28;20057;-68
2021/09/16 10:17:56;;;;;;;6.68;3.88;;;;;;;;;;5053556;28;20025;-66
2021/09/16 10:20:23;;;;;;;10.57;5.97;;;;;;;;;;5054730;28;20031;-67
2021/09/16 10:22:54;;;;;;;7.55;4.13;;;;;;;;;;5054431;28;20029;-66
2021/09/16 10:25:23;;;;;;;6.43;3.90;;;;;;;;;;5052938;28;20025;-67
2021/09/16 10:27:56;;;;;;;7.45;3.83;;;;;;;;;;5047992;28;20027;-67
2021/09/16 10:30:23;;;;;;;8.82;3.40;;;;;;;;;;5052920;28;20090;-67
2021/09/16 10:33:08;;;;;;;6.35;3.65;;;;;;;;;;5047891;28;20481;-66
2021/09/16 10:35:40;;;;;;;12.98;3.50;;;;;;;;;;5050183;28;20362;-67
2021/09/16 10:38:26;;;;;;;6.47;3.80;;;;;;;;;;5053804;28;20125;-68
2021/09/16 10:41:12;;;;;;;7.22;3.35;;;;;;;;;;5046189;28;20354;-66
2021/09/16 10:43:40;;;;;;;14.02;3.72;;;;;;;;;;5052134;28;20044;-66
2021/09/16 10:46:25;;;;;;;7.50;3.60;;;;;;;;;;5051370;28;20013;-67
2021/09/16 10:48:52;;;;;;;5.80;3.55;;;;;;;;;;5053528;28;20496;-67
2021/09/16 10:51:36;;;;;;;6.03;3.00;;;;;;;;;;5053686;28;20021;-67
2021/09/16 10:54:03;;;;;;;7.28;3.70;;;;;;;;;;5048719;28;20032;-67
2021/09/16 10:56:32;;;;;;;5.45;3.47;;;;;;;;;;5053364;28;20484;-67
2021/09/16 10:59:01;;;;;;;6.03;3.25;;;;;;;;;;5053531;28;20039;-67
2021/09/16 11:01:51;;;;;;;7.03;3.10;;;;;;;;;;5052099;28;20124;-66
2021/09/16 11:04:20;;;;;;;8.48;3.80;;;;;;;;;;5048786;28;20034;-67
2021/09/16 11:06:47;;;;;;;7.65;3.67;;;;;;;;;;5053994;28;20126;-68
2021/09/16 11:09:13;;;;;;;4.72;3.03;;;;;;;;;;5054299;28;20059;-67
2021/09/16 11:11:56;;;;;;;6.00;2.90;;;;;;;;;;5053626;28;20380;-68
2021/09/16 11:14:31;;;;;;;10.88;3.30;;;;;;;;;;5034529;28;20025;-68
2021/09/16 11:16:58;;;;;;;6.18;3.50;;;;;;;;;;5039240;28;20537;-75
2021/09/16 11:19:25;;;;;;;6.28;2.85;;;;;;;;;;5049961;28;20040;-74
2021/09/16 11:22:02;;;;;;;6.30;3.25;;;;;;;;;;5053861;28;20017;-73
2021/09/16 11:24:32;;;;;;;5.95;3.72;;;;;;;;;;5053898;28;20024;-73
2021/09/16 11:26:58;;;;;;;7.07;3.72;;;;;;;;;;5048489;28;20021;-72
2021/09/16 11:29:25;;;;;;;6.30;3.53;;;;;;;;;;5051955;28;20056;-73
2021/09/16 11:32:01;;;;;;;7.18;3.47;;;;;;;;;;5043435;28;20029;-72
2021/09/16 11:34:27;;;;;;;7.15;2.97;;;;;;;;;;5050557;28;20025;-72
2021/09/16 11:37:04;;;;;;;5.93;3.10;;;;;;;;;;5053522;28;20048;-73
2021/09/16 11:39:31;;;;;;;4.57;2.58;;;;;;;;;;5050604;28;20056;-73
2021/09/16 11:42:20;;;;;;;4.55;2.92;;;;;;;;;;5052940;28;20079;-73
2021/09/16 11:45:00;;;;;;;5.32;2.90;;;;;;;;;;5053244;28;20013;-71
2021/09/16 11:47:26;;;;;;;4.63;2.70;;;;;;;;;;5051996;28;20025;-65
2021/09/16 11:49:53;;;;;;;7.20;3.67;;;;;;;;;;5051512;28;20067;-66
2021/09/16 11:52:19;;;;;;;6.63;3.58;;;;;;;;;;5053351;28;20494;-67
2021/09/16 11:55:02;;;;;;;5.57;3.10;;;;;;;;;;5053076;28;20354;-68
2021/09/16 11:57:28;;;;;;;7.57;3.42;;;;;;;;;;5053568;28;20021;-68
2021/09/16 11:59:54;;;;;;;7.75;3.53;;;;;;;;;;5053554;28;20087;-68
2021/09/16 12:02:21;;;;;;;7.40;3.20;;;;;;;;;;5053075;28;20384;-65
2021/09/16 12:04:48;;;;;;;4.72;2.90;;;;;;;;;;5045479;28;20040;-66
2021/09/16 12:07:17;;;;;;;5.90;3.42;;;;;;;;;;5052979;28;20025;-66
2021/09/16 12:09:44;;;;;;;5.88;2.92;;;;;;;;;;5053020;28;20060;-65
2021/09/16 12:12:11;;;;;;;5.57;3.13;;;;;;;;;;5052803;28;20029;-65
2021/09/16 12:14:37;;;;;;;7.63;3.20;;;;;;;;;;5052381;28;20044;-64
2021/09/16 12:17:04;;;;;;;7.25;3.13;;;;;;;;;;5052500;28;20031;-66
2021/09/16 12:19:31;;;;;;;6.18;2.83;;;;;;;;;;5052939;28;20033;-66
2021/09/16 12:21:58;;;;;;;4.95;2.83;;;;;;;;;;5051403;28;20024;-66
2021/09/16 12:24:28;;;;;;;6.38;3.75;;;;;;;;;;5050580;28;20029;-65
2021/09/16 12:26:55;;;;;;;5.80;3.20;;;;;;;;;;5051086;28;20028;-64
2021/09/16 12:29:34;;;;;;;6.95;3.20;;;;;;;;;;5050800;28;20045;-65
2021/09/16 12:32:01;;;;;;;4.93;2.95;;;;;;;;;;5050532;28;20473;-65
2021/09/16 12:34:29;;;;;;;5.50;2.85;;;;;;;;;;5051112;28;20029;-65
2021/09/16 12:36:56;;;;;;;6.45;3.10;;;;;;;;;;5051955;28;20024;-65
2021/09/16 12:39:23;;;;;;;3.28;2.40;;;;;;;;;;5052270;28;20493;-66
2021/09/16 12:41:59;;;;;;;6.38;3.20;;;;;;;;;;5052993;28;20067;-65
2021/09/16 12:44:26;;;;;;;4.82;3.20;;;;;;;;;;5051519;28;20036;-66
2021/09/16 12:47:04;;;;;;;7.47;3.33;;;;;;;;;;5051405;28;20073;-66
2021/09/16 12:49:37;;;;;;;7.03;3.20;;;;;;;;;;5052442;28;20028;-68
2021/09/16 12:52:03;;;;;;;4.85;3.28;;;;;;;;;;5050728;28;20466;-68
2021/09/16 12:54:30;;;;;;;6.90;3.13;;;;;;;;;;5050491;28;20060;-68
2021/09/16 12:56:56;;;;;;;5.57;3.03;;;;;;;;;;5051120;28;20033;-68
2021/09/16 12:59:26;;;;;;;5.03;2.95;;;;;;;;;;5051228;28;20033;-68
2021/09/16 13:02:11;;;;;;;4.43;2.72;;;;;;;;;;5052207;28;20021;-68
2021/09/16 13:04:49;;;;;;;6.32;2.88;;;;;;;;;;5051995;28;20021;-68
2021/09/16 13:07:15;;;;;;;5.15;2.90;;;;;;;;;;5052365;28;20060;-67
2021/09/16 13:09:42;;;;;;;6.03;3.00;;;;;;;;;;5048801;28;20441;-67
2021/09/16 13:12:14;;;;;;;5.00;2.95;;;;;;;;;;5052441;28;20522;-67
2021/09/16 13:14:41;;;;;;;6.90;2.78;;;;;;;;;;5053105;28;20025;-67
2021/09/16 13:17:07;;;;;;;6.30;3.25;;;;;;;;;;5053282;28;20021;-67
2021/09/16 13:19:34;;;;;;;5.90;2.88;;;;;;;;;;5045236;28;20430;-66
2021/09/16 13:22:00;;;;;;;7.55;3.22;;;;;;;;;;5052793;28;20024;-67
2021/09/16 13:24:27;;;;;;;5.90;3.25;;;;;;;;;;5052748;28;20420;-68
2021/09/16 13:26:53;;;;;;;6.07;3.45;;;;;;;;;;5049599;28;20021;-67
2021/09/16 13:29:19;;;;;;;5.65;3.22;;;;;;;;;;5043327;28;20044;-66
2021/09/16 13:31:45;;;;;;;7.60;3.70;;;;;;;;;;5036716;28;20028;-67
2021/09/16 13:34:12;;;;;;;9.60;3.17;;;;;;;;;;5047333;28;20100;-67
2021/09/16 13:36:38;;;;;;;7.63;2.95;;;;;;;;;;5039063;28;20021;-66
2021/09/16 13:39:05;;;;;;;5.45;3.20;;;;;;;;;;5038689;28;20518;-67
2021/09/16 13:41:31;;;;;;;6.35;3.40;;;;;;;;;;5045365;28;20059;-67
2021/09/16 13:43:57;;;;;;;6.35;3.42;;;;;;;;;;5035105;28;20029;-67
2021/09/16 13:46:23;;;;;;;5.43;2.90;;;;;;;;;;5036418;28;20021;-67
2021/09/16 13:48:49;;;;;;;8.98;3.17;;;;;;;;;;5035922;28;20033;-67
2021/09/16 13:51:16;;;;;;;5.35;3.35;;;;;;;;;;5034981;28;20048;-67
2021/09/16 13:53:42;;;;;;;6.55;3.13;;;;;;;;;;5035810;28;20045;-66
2021/09/16 13:56:08;;;;;;;6.85;3.08;;;;;;;;;;5036308;28;20025;-67
2021/09/16 13:58:34;;;;;;;5.05;2.40;;;;;;;;;;5036170;28;20043;-67
2021/09/16 14:01:01;;;;;;;5.60;3.10;;;;;;;;;;5035766;28;20059;-68
2021/09/16 14:03:27;;;;;;;6.28;2.78;;;;;;;;;;5035957;28;20025;-67
2021/09/16 14:05:53;;;;;;;5.82;3.10;;;;;;;;;;5035687;28;20022;-68
2021/09/16 14:08:19;;;;;;;5.35;3.20;;;;;;;;;;5034118;28;20021;-68
2021/09/16 14:10:47;;;;;;;7.03;2.65;;;;;;;;;;5035045;28;20072;-68
2021/09/16 14:13:13;;;;;;;4.60;2.53;;;;;;;;;;5035667;28;20018;-68
2021/09/16 14:15:39;;;;;;;4.28;2.40;;;;;;;;;;5035257;28;20030;-67
2021/09/16 14:18:05;;;;;;;4.78;2.72;;;;;;;;;;5035687;28;20032;-68
2021/09/16 14:20:31;;;;;;;4.85;2.60;;;;;;;;;;5035688;28;20426;-67
2021/09/16 14:22:58;;;;;;;5.20;2.30;;;;;;;;;;5035296;28;20021;-66
2021/09/16 14:25:24;;;;;;;4.15;2.60;;;;;;;;;;5035689;28;20025;-67
2021/09/16 14:27:50;;;;;;;4.60;2.78;;;;;;;;;;5035420;28;20026;-67
2021/09/16 14:30:16;;;;;;;5.50;3.45;;;;;;;;;;5035115;28;20026;-67
2021/09/16 14:32:42;;;;;;;3.85;2.47;;;;;;;;;;5034250;28;20112;-67
2021/09/16 14:35:09;;;;;;;4.65;2.95;;;;;;;;;;5035501;28;20048;-67
2021/09/16 14:37:35;;;;;;;4.85;2.72;;;;;;;;;;5033689;28;20052;-67
2021/09/16 14:40:01;;;;;;;4.85;2.65;;;;;;;;;;5033816;28;20049;-67
2021/09/16 14:42:27;;;;;;;5.50;2.50;;;;;;;;;;5034125;28;20022;-67
2021/09/16 14:44:53;;;;;;;5.18;2.83;;;;;;;;;;5034994;28;20051;-67
2021/09/16 14:47:20;;;;;;;4.47;2.75;;;;;;;;;;5035380;28;20030;-67
2021/09/16 14:49:46;;;;;;;4.60;2.70;;;;;;;;;;5032006;28;20021;-66
2021/09/16 14:52:12;;;;;;;5.85;2.80;;;;;;;;;;5054109;28;20031;-68
2021/09/16 14:54:38;;;;;;;7.00;2.80;;;;;;;;;;5053766;28;20032;-68
2021/09/16 14:57:05;;;;;;;6.18;2.80;;;;;;;;;;5054772;28;20145;-68
2021/09/16 14:59:31;;;;;;;4.75;2.78;;;;;;;;;;5055008;28;20060;-68
2021/09/16 15:01:57;;;;;;;6.20;3.30;;;;;;;;;;5054844;28;20025;-68
2021/09/16 15:04:23;;;;;;;4.88;2.85;;;;;;;;;;5054394;28;20040;-67
2021/09/16 15:06:49;;;;;;;6.25;2.83;;;;;;;;;;5054571;28;20036;-67
2021/09/16 15:09:16;;;;;;;4.20;2.85;;;;;;;;;;5054649;28;20163;-67
2021/09/16 15:11:42;;;;;;;3.40;2.33;;;;;;;;;;5054172;28;20497;-67
2021/09/16 15:14:09;;;;;;;5.22;2.13;;;;;;;;;;5054498;28;20025;-67
2021/09/16 15:16:35;;;;;;;3.90;2.33;;;;;;;;;;5053458;28;20551;-68
2021/09/16 15:19:01;;;;;;;5.75;2.78;;;;;;;;;;5053878;28;20108;-67
2021/09/16 15:21:27;;;;;;;12.10;2.72;;;;;;;;;;5054386;28;20100;-66
2021/09/16 15:23:54;;;;;;;5.43;2.80;;;;;;;;;;5054518;28;20091;-66
2021/09/16 15:26:20;;;;;;;5.30;2.95;;;;;;;;;;5052584;28;20025;-66
2021/09/16 15:28:46;;;;;;;5.10;2.50;;;;;;;;;;5054245;28;20021;-66
2021/09/16 15:31:12;;;;;;;5.72;2.90;;;;;;;;;;5054248;28;20071;-68
2021/09/16 15:33:38;;;;;;;4.65;2.90;;;;;;;;;;5053963;28;20041;-68
2021/09/16 15:36:05;;;;;;;5.75;3.38;;;;;;;;;;5054152;28;20057;-66
2021/09/16 15:38:31;;;;;;;6.18;2.85;;;;;;;;;;5054245;28;20052;-67
2021/09/16 15:40:58;;;;;;;5.78;3.15;;;;;;;;;;5052458;28;20437;-67
2021/09/16 15:43:25;;;;;;;5.75;2.78;;;;;;;;;;5052775;28;20446;-67
2021/09/16 15:45:51;;;;;;;3.97;2.35;;;;;;;;;;5053991;28;20473;-67
2021/09/16 15:48:18;;;;;;;7.30;3.38;;;;;;;;;;5053074;28;20059;-67
2021/09/16 15:50:45;;;;;;;4.90;3.20;;;;;;;;;;5051515;28;20045;-67
2021/09/16 15:53:11;;;;;;;5.93;3.63;;;;;;;;;;5053808;28;20021;-66
2021/09/16 15:55:37;;;;;;;7.80;3.38;;;;;;;;;;5053422;28;20071;-66
2021/09/16 15:58:04;;;;;;;6.88;2.92;;;;;;;;;;5053699;28;20048;-66
2021/09/16 16:00:32;;;;;;;5.90;2.97;;;;;;;;;;5053342;28;20033;-67
2021/09/16 16:02:58;;;;;;;5.35;2.80;;;;;;;;;;5053992;28;20147;-66
2021/09/16 16:05:25;;;;;;;4.05;2.42;;;;;;;;;;5052387;28;20021;-67
2021/09/16 16:07:52;;;;;;;3.85;2.60;;;;;;;;;;5051876;28;20021;-66
2021/09/16 16:10:19;;;;;;;6.20;3.47;;;;;;;;;;5052315;28;20021;-68
2021/09/16 16:12:45;;;;;;;5.90;3.13;;;;;;;;;;5053629;28;20064;-67
2021/09/16 16:15:11;;;;;;;7.82;3.42;;;;;;;;;;5053238;28;20477;-67
2021/09/16 16:17:38;;;;;;;5.53;3.22;;;;;;;;;;5053479;28;20095;-67
2021/09/16 16:20:05;;;;;;;5.63;3.00;;;;;;;;;;5052047;28;20033;-67
2021/09/16 16:22:33;;;;;;;5.90;3.13;;;;;;;;;;5053053;28;20024;-66
2021/09/16 16:24:59;;;;;;;7.28;3.30;;;;;;;;;;5053406;28;20025;-66
2021/09/16 16:27:26;;;;;;;9.85;4.45;;;;;;;;;;5053426;28;20029;-66
2021/09/16 16:29:52;;;;;;;8.15;4.82;;;;;;;;;;5052964;28;20048;-66